Time;durP1;ratioP1;P1;durP2;ratioP2;P2;SDS_P1;SDS_P2;PMS_P1;PMS_P2;Temp;Humidity;BMP_temperature;BMP_pressure;BME280_temperature;BME280_humidity;BME280_pressure;Samples;Min_cycle;Max_cycle;Signal;HPM_P1;HPM_P2
2022/05/20 04:04:05;;;;;;;7.13;5.20;;;14.90;99.90;;;;;;5719053;23;20248;-75
2022/05/20 04:06:34;;;;;;;6.20;5.00;;;14.90;99.90;;;;;;4937431;29;20251;-75
2022/05/20 04:09:02;;;;;;;6.57;4.63;;;14.90;99.90;;;;;;4937908;29;20622;-75
2022/05/20 04:11:31;;;;;;;7.37;5.00;;;15.00;99.90;;;;;;4938149;29;20637;-74
2022/05/20 04:13:59;;;;;;;6.80;4.53;;;15.00;99.90;;;;;;4938023;29;20226;-76
2022/05/20 04:16:27;;;;;;;7.23;4.30;;;15.10;99.90;;;;;;4937496;29;20279;-76
2022/05/20 04:18:56;;;;;;;7.27;4.57;;;15.10;99.90;;;;;;4937861;29;20212;-74
2022/05/20 04:21:25;;;;;;;8.37;4.50;;;15.20;99.90;;;;;;4937913;29;20232;-75
2022/05/20 04:23:53;;;;;;;6.83;4.57;;;15.30;99.90;;;;;;4937703;29;20215;-76
2022/05/20 04:26:21;;;;;;;7.40;4.53;;;15.30;99.90;;;;;;4937894;29;20543;-76
2022/05/20 04:28:49;;;;;;;5.23;4.20;;;15.40;99.90;;;;;;4937680;29;20689;-77
2022/05/20 04:31:18;;;;;;;5.97;4.10;;;15.50;99.90;;;;;;4938235;29;20248;-75
2022/05/20 04:33:46;;;;;;;5.87;4.40;;;15.60;99.90;;;;;;4937759;29;20209;-75
2022/05/20 04:36:14;;;;;;;4.93;4.00;;;15.70;99.90;;;;;;4937673;29;20654;-76
2022/05/20 04:38:44;;;;;;;5.63;4.10;;;15.80;99.90;;;;;;4937445;29;20692;-77
2022/05/20 04:46:59;;;;;;;7.90;4.00;;;16.10;99.90;;;;;;4933975;29;20686;-76
2022/05/20 04:49:29;;;;;;;6.50;3.77;;;16.30;99.90;;;;;;4928117;29;20575;-75
2022/05/20 04:52:00;;;;;;;8.40;3.80;;;16.50;99.90;;;;;;4938104;29;20303;-76
2022/05/20 04:57:21;;;;;;;5.00;3.70;;;16.70;99.90;;;;;;4938201;29;20196;-75
2022/05/20 04:59:52;;;;;;;6.33;3.30;;;16.80;99.90;;;;;;4937629;29;20211;-76
2022/05/20 05:02:21;;;;;;;5.67;3.90;;;16.90;99.90;;;;;;4932887;29;20236;-75
2022/05/20 05:04:50;;;;;;;3.90;3.23;;;17.00;99.90;;;;;;4919725;29;20245;-75
2022/05/20 05:07:18;;;;;;;4.57;3.10;;;17.30;99.90;;;;;;4899397;29;20305;-75
2022/05/20 05:09:48;;;;;;;6.57;3.40;;;17.60;99.90;;;;;;4899421;29;20218;-76
2022/05/20 05:12:16;;;;;;;5.20;3.10;;;17.90;99.90;;;;;;4909185;29;20303;-75
2022/05/20 05:14:46;;;;;;;4.17;3.00;;;18.10;99.90;;;;;;4918555;29;20217;-75
2022/05/20 05:18:09;;;;;;;4.37;3.17;;;18.20;99.90;;;;;;4915112;29;20289;-76
2022/05/20 05:20:09;;;;;;;5.80;2.87;;;18.20;99.90;;;;;;4917406;29;20212;-78
2022/05/20 05:22:37;;;;;;;6.63;3.50;;;18.10;99.90;;;;;;4918446;29;20256;-77
2022/05/20 05:25:11;;;;;;;6.13;2.90;;;18.10;99.90;;;;;;4918186;29;20341;-77
2022/05/20 05:27:40;;;;;;;4.33;3.10;;;18.10;99.90;;;;;;4917812;29;20256;-80
2022/05/20 05:30:11;;;;;;;3.23;2.90;;;18.10;99.90;;;;;;4917152;29;20743;-79
2022/05/20 05:32:41;;;;;;;4.43;3.20;;;18.10;99.90;;;;;;4917710;29;20264;-79
2022/05/20 05:35:12;;;;;;;3.53;3.00;;;18.10;99.90;;;;;;4915082;29;20296;-77
2022/05/20 05:37:42;;;;;;;4.83;2.90;;;18.20;99.90;;;;;;4917356;29;20216;-76
2022/05/20 05:40:15;;;;;;;5.43;3.40;;;18.20;99.90;;;;;;4918450;29;20236;-76
2022/05/20 05:42:43;;;;;;;4.33;2.73;;;18.40;99.90;;;;;;4902898;29;20225;-77
2022/05/20 05:45:14;;;;;;;5.60;3.17;;;18.50;99.90;;;;;;4902183;29;20309;-75
2022/05/20 05:47:45;;;;;;;5.17;2.60;;;18.90;99.90;;;;;;4917966;29;20331;-76
2022/05/20 05:50:13;;;;;;;3.37;2.93;;;19.50;99.90;;;;;;4916690;29;20244;-77
2022/05/20 05:52:41;;;;;;;4.80;2.90;;;19.90;99.90;;;;;;4917722;29;20630;-77
2022/05/20 05:55:09;;;;;;;3.70;2.70;;;20.70;99.90;;;;;;4919020;29;20221;-78
2022/05/20 05:57:39;;;;;;;4.83;2.80;;;21.70;99.90;;;;;;4918065;29;20209;-78
2022/05/20 06:00:09;;;;;;;5.13;2.53;;;22.30;99.90;;;;;;4916445;29;20209;-77
2022/05/20 06:02:37;;;;;;;2.50;2.30;;;22.80;99.90;;;;;;4917461;29;20249;-80
2022/05/20 06:05:05;;;;;;;7.13;2.60;;;23.60;99.90;;;;;;4916761;29;20225;-77
2022/05/20 06:07:33;;;;;;;3.77;2.57;;;24.30;99.90;;;;;;4917431;29;20635;-80
2022/05/20 06:10:03;;;;;;;5.23;2.43;;;24.80;99.90;;;;;;4921373;29;20342;-80
2022/05/20 06:12:33;;;;;;;2.20;2.00;;;25.50;99.90;;;;;;4918337;29;20280;-80
2022/05/20 06:15:05;;;;;;;4.23;2.10;;;26.00;99.90;;;;;;4917855;29;20205;-82
2022/05/20 06:17:34;;;;;;;2.80;2.10;;;26.50;99.90;;;;;;4919744;29;20202;-83
2022/05/20 06:20:05;;;;;;;4.30;2.00;;;26.60;99.90;;;;;;4919198;29;20240;-83
2022/05/20 06:22:33;;;;;;;4.35;2.10;;;27.10;99.90;;;;;;4917720;29;20228;-82
2022/05/20 06:25:01;;;;;;;4.32;2.17;;;27.50;99.90;;;;;;4918793;29;20268;-82
2022/05/20 06:27:31;;;;;;;4.03;2.10;;;28.00;99.90;;;;;;4923523;29;20284;-81
2022/05/20 06:30:01;;;;;;;2.72;2.10;;;29.10;99.40;;;;;;4921256;29;20283;-82
2022/05/20 06:32:30;;;;;;;4.05;2.40;;;28.90;98.50;;;;;;4918359;29;20228;-83
2022/05/20 06:40:36;;;;;;;2.20;2.00;;;29.30;95.90;;;;;;4916922;29;20260;-81
2022/05/20 06:43:05;;;;;;;3.97;2.00;;;29.60;94.60;;;;;;4916669;29;20276;-80
2022/05/20 06:45:35;;;;;;;1.77;1.60;;;29.80;94.00;;;;;;4926060;29;20209;-82
2022/05/20 06:48:36;;;;;;;2.40;1.98;;;29.90;93.30;;;;;;4921575;29;20272;-82
2022/05/20 06:51:05;;;;;;;3.08;2.10;;;30.60;93.40;;;;;;4915671;29;20354;-85
2022/05/20 06:53:33;;;;;;;3.30;1.92;;;30.70;92.10;;;;;;4919756;29;20690;-81
2022/05/20 06:56:01;;;;;;;1.95;1.80;;;31.00;91.10;;;;;;4920590;29;20209;-82
2022/05/20 06:58:30;;;;;;;3.60;1.90;;;30.50;91.50;;;;;;4919959;29;20208;-81
2022/05/20 07:00:59;;;;;;;3.60;2.10;;;30.30;92.30;;;;;;4922414;29;20260;-82
2022/05/20 07:03:29;;;;;;;3.65;2.03;;;30.50;91.50;;;;;;4924485;29;20244;-80
2022/05/20 07:05:57;;;;;;;2.72;1.90;;;31.20;90.80;;;;;;4924012;29;20205;-81
2022/05/20 07:08:26;;;;;;;2.67;2.03;;;31.00;91.10;;;;;;4926818;29;20244;-78
2022/05/20 07:10:54;;;;;;;2.80;2.00;;;31.30;88.40;;;;;;4931071;29;20215;-82
2022/05/20 07:13:39;;;;;;;3.17;2.00;;;31.80;87.70;;;;;;4926543;29;20268;-83
2022/05/20 07:16:07;;;;;;;2.22;1.85;;;32.10;88.20;;;;;;4924902;29;20663;-82
2022/05/20 07:18:37;;;;;;;2.42;1.95;;;32.10;87.20;;;;;;4927059;29;20611;-82
2022/05/20 07:21:05;;;;;;;2.75;1.70;;;32.90;85.70;;;;;;4928821;29;20228;-82
2022/05/20 07:23:34;;;;;;;3.05;1.77;;;33.10;81.70;;;;;;4930131;29;20244;-85
2022/05/20 07:26:02;;;;;;;5.05;2.00;;;33.50;81.70;;;;;;4931333;29;20251;-84
2022/05/20 07:28:31;;;;;;;2.45;1.77;;;33.20;78.60;;;;;;4926267;29;20209;-83
2022/05/20 07:31:00;;;;;;;3.67;2.00;;;33.00;79.10;;;;;;4926828;29;20225;-85
2022/05/20 07:33:30;;;;;;;5.00;2.05;;;33.20;78.10;;;;;;4931572;29;20230;-81
2022/05/20 07:36:00;;;;;;;2.72;1.80;;;33.10;76.60;;;;;;4930195;29;20655;-82
2022/05/20 07:38:28;;;;;;;2.92;1.80;;;32.80;76.60;;;;;;4932145;29;20219;-82
2022/05/20 07:40:57;;;;;;;2.33;1.90;;;32.80;77.30;;;;;;4929278;29;20209;-85
2022/05/20 07:43:29;;;;;;;4.05;2.22;;;32.60;77.10;;;;;;4929859;29;20228;-84
2022/05/20 07:45:57;;;;;;;2.38;1.85;;;32.50;78.20;;;;;;4930921;29;20702;-83
2022/05/20 07:48:25;;;;;;;3.78;1.88;;;32.80;77.10;;;;;;4922165;29;20259;-80
2022/05/20 07:50:58;;;;;;;2.90;2.00;;;33.50;78.30;;;;;;4925032;29;20236;-81
2022/05/20 07:53:33;;;;;;;2.10;1.90;;;33.70;75.00;;;;;;4918998;29;20221;-82
2022/05/20 07:56:05;;;;;;;2.55;1.95;;;34.20;74.50;;;;;;4918968;29;20216;-82
2022/05/20 07:58:38;;;;;;;5.95;2.10;;;34.80;77.40;;;;;;4911245;29;20297;-81
2022/05/20 08:01:26;;;;;;;3.15;2.00;;;34.70;71.80;;;;;;4900316;29;20201;-83
2022/05/20 08:06:47;;;;;;;3.50;1.85;;;35.00;73.00;;;;;;4914027;29;20220;-84
2022/05/20 08:09:16;;;;;;;2.88;2.05;;;35.20;70.50;;;;;;4918546;29;20643;-83
2022/05/20 08:11:44;;;;;;;2.05;1.85;;;35.00;69.50;;;;;;4918672;29;20269;-82
2022/05/20 08:14:13;;;;;;;2.10;1.90;;;35.10;68.30;;;;;;4919458;29;20209;-80
2022/05/20 08:16:41;;;;;;;3.67;2.03;;;34.90;67.20;;;;;;4919368;29;20217;-83
2022/05/20 08:19:13;;;;;;;4.50;1.98;;;35.30;66.80;;;;;;4918372;29;20296;-82
2022/05/20 08:21:41;;;;;;;2.78;2.20;;;35.70;65.70;;;;;;4918047;29;20213;-80
2022/05/20 08:24:09;;;;;;;3.65;2.08;;;35.60;69.10;;;;;;4918200;29;20655;-81
2022/05/20 08:26:38;;;;;;;3.05;2.10;;;35.70;65.70;;;;;;4917858;29;20246;-84
2022/05/20 08:29:12;;;;;;;3.70;1.88;;;36.00;63.10;;;;;;4918268;29;20212;-83
2022/05/20 08:31:42;;;;;;;3.25;2.15;;;35.80;65.90;;;;;;4919002;29;20209;-80
2022/05/20 08:34:11;;;;;;;5.85;2.20;;;36.10;63.50;;;;;;4919541;29;20205;-80
2022/05/20 08:36:39;;;;;;;4.68;2.00;;;36.10;64.30;;;;;;4919601;29;20307;-81
2022/05/20 08:39:10;;;;;;;4.25;2.30;;;36.40;63.00;;;;;;4918523;29;20209;-81
2022/05/20 08:41:42;;;;;;;3.70;2.28;;;36.60;62.00;;;;;;4918960;29;20209;-84
2022/05/20 08:44:20;;;;;;;10.18;2.30;;;36.20;60.30;;;;;;4910606;29;20228;-84
2022/05/20 08:46:50;;;;;;;3.47;2.15;;;36.00;61.00;;;;;;4918536;29;20300;-82
2022/05/20 08:49:23;;;;;;;2.15;2.00;;;35.60;68.10;;;;;;4920070;29;20241;-81
2022/05/20 08:51:54;;;;;;;6.85;2.13;;;36.10;64.80;;;;;;4920131;29;20233;-81
2022/05/20 08:54:24;;;;;;;3.42;1.90;;;36.70;58.60;;;;;;4917977;29;20300;-80
2022/05/20 08:56:54;;;;;;;5.35;2.15;;;36.50;59.90;;;;;;4918699;29;20260;-82
2022/05/20 08:59:23;;;;;;;4.60;1.98;;;36.80;59.80;;;;;;4918029;29;20213;-77
2022/05/20 09:01:52;;;;;;;4.07;2.03;;;36.90;58.90;;;;;;4917501;29;20213;-79
2022/05/20 09:04:24;;;;;;;2.72;2.08;;;37.00;58.20;;;;;;4915027;29;20229;-78
2022/05/20 09:07:01;;;;;;;3.75;2.08;;;37.20;56.30;;;;;;4917108;29;20224;-76
2022/05/20 09:09:40;;;;;;;4.55;2.10;;;37.30;57.30;;;;;;4917360;29;20257;-76
2022/05/20 09:12:11;;;;;;;2.47;2.00;;;37.20;57.80;;;;;;4916152;29;20213;-78
2022/05/20 09:17:26;;;;;;;4.90;2.00;;;36.60;57.40;;;;;;4916908;29;20209;-78
2022/05/20 09:19:58;;;;;;;4.57;2.15;;;37.60;58.80;;;;;;4915246;29;20209;-82
2022/05/20 09:22:29;;;;;;;4.15;2.20;;;37.80;55.20;;;;;;4916511;29;20660;-84
2022/05/20 09:24:58;;;;;;;2.15;1.90;;;37.40;57.40;;;;;;4916115;29;20193;-79
2022/05/20 09:27:32;;;;;;;4.28;2.20;;;37.80;54.70;;;;;;4914433;29;20264;-78
2022/05/20 09:30:05;;;;;;;6.72;2.10;;;38.00;56.80;;;;;;4915929;29;20204;-75
2022/05/20 09:32:37;;;;;;;5.10;2.35;;;37.70;55.00;;;;;;4901072;29;20241;-78
2022/05/20 09:35:08;;;;;;;3.10;2.08;;;37.80;55.90;;;;;;4911075;29;20264;-83
2022/05/20 09:37:47;;;;;;;3.70;2.03;;;37.80;55.70;;;;;;4916849;29;20247;-81
2022/05/20 09:40:23;;;;;;;5.30;2.30;;;38.30;52.20;;;;;;4915813;29;20224;-81
2022/05/20 09:43:25;;;;;;;3.50;2.30;;;38.20;54.30;;;;;;4919607;29;20698;-80
2022/05/20 09:45:56;;;;;;;3.97;2.00;;;38.20;54.40;;;;;;4921678;29;20201;-80
2022/05/20 09:48:35;;;;;;;3.58;2.13;;;38.10;56.00;;;;;;4922909;29;20269;-80
2022/05/20 09:51:08;;;;;;;7.45;2.50;;;38.20;53.40;;;;;;4921813;29;20273;-78
2022/05/20 09:53:39;;;;;;;3.63;2.08;;;38.20;51.50;;;;;;4922020;29;20289;-81
2022/05/20 09:56:30;;;;;;;3.65;2.17;;;38.10;53.10;;;;;;4920648;29;20212;-81
2022/05/20 09:59:23;;;;;;;5.63;2.50;;;38.10;54.50;;;;;;4917325;29;20221;-82
2022/05/20 10:02:05;;;;;;;6.25;2.72;;;38.00;54.50;;;;;;4917685;29;20204;-83
2022/05/20 10:04:44;;;;;;;4.47;2.40;;;37.80;54.10;;;;;;4917205;29;20216;-79
2022/05/20 10:07:17;;;;;;;6.00;3.70;;;37.70;54.40;;;;;;4922986;29;21006;-81
2022/05/20 10:09:52;;;;;;;5.18;2.60;;;38.30;52.00;;;;;;4926691;29;20264;-80
2022/05/20 10:12:28;;;;;;;6.70;2.65;;;38.00;51.30;;;;;;4916803;29;20319;-79
2022/05/20 10:15:06;;;;;;;2.97;2.40;;;38.30;50.80;;;;;;4915558;29;20216;-80
2022/05/20 10:17:48;;;;;;;3.90;2.20;;;37.90;54.70;;;;;;4908485;29;20687;-81
2022/05/20 10:20:23;;;;;;;3.92;2.33;;;38.20;54.40;;;;;;4906543;29;20216;-81
2022/05/20 10:23:02;;;;;;;6.18;2.58;;;38.40;51.10;;;;;;4915508;29;20215;-79
2022/05/20 10:25:36;;;;;;;3.67;2.50;;;38.20;53.80;;;;;;4916845;29;20213;-85
2022/05/20 10:32:33;;;;;;;5.43;2.58;;;38.30;51.00;;;;;;4916059;29;20205;-78
2022/05/20 10:33:54;;;;;;;4.05;2.60;;;37.60;52.40;;;;;;4910831;29;20228;-80
2022/05/20 10:36:32;;;;;;;4.10;2.70;;;36.90;52.00;;;;;;4915703;29;20848;-80
2022/05/20 10:39:07;;;;;;;4.60;2.40;;;37.10;53.20;;;;;;4917750;29;20233;-80
2022/05/20 10:42:12;;;;;;;5.10;2.58;;;37.10;54.00;;;;;;4912136;29;20208;-80
2022/05/20 10:50:57;;;;;;;4.22;2.72;;;37.60;50.10;;;;;;4916030;29;20209;-80
2022/05/20 10:53:36;;;;;;;4.93;2.40;;;38.10;50.30;;;;;;4915341;29;20252;-80
2022/05/20 10:56:29;;;;;;;7.25;2.60;;;38.50;50.90;;;;;;4916253;29;20280;-82
2022/05/20 10:59:24;;;;;;;4.55;2.70;;;38.10;52.30;;;;;;4916251;29;20614;-81
2022/05/20 11:02:05;;;;;;;5.60;2.72;;;37.30;50.70;;;;;;4912434;29;20232;-78
2022/05/20 11:04:54;;;;;;;5.65;2.63;;;37.00;52.50;;;;;;4915381;29;20221;-78
2022/05/20 11:07:50;;;;;;;3.78;2.30;;;36.90;51.00;;;;;;4916749;29;20201;-79
2022/05/20 11:10:30;;;;;;;5.85;2.70;;;37.30;52.10;;;;;;4916056;29;20201;-79
2022/05/20 11:13:08;;;;;;;5.85;2.80;;;36.90;54.70;;;;;;4910902;29;20220;-78
2022/05/20 11:16:10;;;;;;;6.25;2.90;;;37.40;52.40;;;;;;4896462;29;20644;-78
2022/05/20 11:19:03;;;;;;;6.45;2.60;;;37.20;48.70;;;;;;4898879;29;20212;-79
2022/05/20 11:22:05;;;;;;;5.32;2.67;;;37.20;49.80;;;;;;4918002;29;20197;-79
2022/05/20 11:24:57;;;;;;;5.82;2.60;;;36.80;50.50;;;;;;4918266;29;20239;-79
2022/05/20 11:27:48;;;;;;;5.18;2.90;;;36.20;52.40;;;;;;4915977;29;20239;-77
2022/05/20 11:30:24;;;;;;;5.35;2.90;;;35.80;53.30;;;;;;4917680;29;20211;-77
2022/05/20 11:33:10;;;;;;;6.97;2.75;;;35.20;55.70;;;;;;4917643;29;20196;-77
2022/05/20 11:35:59;;;;;;;3.63;2.55;;;34.70;58.40;;;;;;4915923;29;20263;-78
2022/05/20 11:39:03;;;;;;;5.38;2.58;;;34.80;54.10;;;;;;4915939;29;20663;-78
2022/05/20 11:41:43;;;;;;;5.68;2.80;;;34.90;53.40;;;;;;4894808;29;20280;-76
2022/05/20 11:44:37;;;;;;;4.15;2.50;;;34.50;54.00;;;;;;4915962;29;20203;-78
2022/05/20 11:47:25;;;;;;;4.97;2.55;;;34.50;53.20;;;;;;4915763;29;20201;-77
2022/05/20 11:50:12;;;;;;;7.55;2.65;;;34.50;57.00;;;;;;4918711;29;20209;-76
2022/05/20 11:52:48;;;;;;;6.25;2.80;;;34.10;56.80;;;;;;4916858;29;20283;-74
2022/05/20 11:55:20;;;;;;;4.55;2.42;;;34.10;57.80;;;;;;4900722;29;20237;-77
2022/05/20 11:57:59;;;;;;;6.75;2.70;;;34.20;54.60;;;;;;4900188;29;20201;-76
2022/05/20 12:00:29;;;;;;;6.50;2.88;;;34.00;54.40;;;;;;4899987;29;20236;-77
2022/05/20 12:03:01;;;;;;;5.68;2.80;;;33.80;56.10;;;;;;4900084;29;20237;-78
2022/05/20 12:05:36;;;;;;;6.70;2.58;;;33.80;55.90;;;;;;4900103;29;20225;-75
2022/05/20 12:08:06;;;;;;;6.53;3.00;;;33.50;56.80;;;;;;4899788;29;20209;-79
2022/05/20 12:10:48;;;;;;;5.22;2.42;;;33.60;57.20;;;;;;4902110;29;20641;-75
2022/05/20 12:13:22;;;;;;;5.40;2.67;;;33.70;56.40;;;;;;4918820;29;20197;-77
2022/05/20 12:16:10;;;;;;;7.82;2.72;;;33.80;56.20;;;;;;4918502;29;20743;-77
2022/05/20 12:24:38;;;;;;;4.00;2.78;;;33.60;58.50;;;;;;4919212;29;20243;-75
2022/05/20 12:27:33;;;;;;;7.15;3.40;;;33.70;56.90;;;;;;4918334;29;20217;-76
2022/05/20 12:30:06;;;;;;;5.75;2.78;;;33.60;58.80;;;;;;4918843;29;20532;-76
2022/05/20 12:32:54;;;;;;;5.97;2.88;;;33.50;59.60;;;;;;4918947;29;20223;-75
2022/05/20 12:35:29;;;;;;;5.68;2.70;;;33.50;56.10;;;;;;4918951;29;20256;-76
2022/05/20 12:38:23;;;;;;;3.90;2.60;;;33.30;58.30;;;;;;4921741;29;20268;-76
2022/05/20 12:41:03;;;;;;;6.93;2.80;;;33.30;57.20;;;;;;4920606;29;20220;-75
2022/05/20 12:43:58;;;;;;;6.32;3.03;;;33.20;56.30;;;;;;4918650;29;20213;-76
2022/05/20 12:46:56;;;;;;;4.63;2.85;;;33.30;56.20;;;;;;4918681;29;20223;-75
2022/05/20 12:49:29;;;;;;;5.93;2.70;;;33.30;56.90;;;;;;4914046;29;20217;-75
2022/05/20 12:52:09;;;;;;;7.10;2.78;;;33.50;58.80;;;;;;4918099;29;20243;-75
2022/05/20 12:54:42;;;;;;;6.30;2.83;;;33.30;57.60;;;;;;4917925;29;20269;-74
2022/05/20 12:57:12;;;;;;;5.50;2.95;;;33.60;57.30;;;;;;4917939;29;20715;-76
2022/05/20 12:59:41;;;;;;;3.58;2.70;;;33.60;57.30;;;;;;4917527;29;20566;-75
2022/05/20 13:02:15;;;;;;;6.82;3.13;;;33.70;56.50;;;;;;4917983;29;20197;-75
2022/05/20 13:04:54;;;;;;;3.58;2.63;;;33.50;60.00;;;;;;4917530;29;20220;-74
2022/05/20 13:07:24;;;;;;;4.60;2.85;;;33.10;55.50;;;;;;4917987;29;20201;-75
2022/05/20 13:09:52;;;;;;;6.78;3.05;;;33.20;56.30;;;;;;4917499;29;20409;-74
2022/05/20 13:12:23;;;;;;;5.20;3.00;;;33.00;56.50;;;;;;4917959;29;20734;-75
2022/05/20 13:14:58;;;;;;;5.47;2.80;;;33.10;56.10;;;;;;4918209;29;20283;-73
2022/05/20 13:17:27;;;;;;;5.72;2.80;;;33.30;55.50;;;;;;4917858;29;20210;-75
2022/05/20 13:19:57;;;;;;;7.82;3.00;;;33.40;58.30;;;;;;4918033;29;20632;-77
2022/05/20 13:22:28;;;;;;;6.55;2.80;;;33.50;58.40;;;;;;4917292;29;20193;-75
2022/05/20 13:24:59;;;;;;;6.45;2.80;;;33.10;55.80;;;;;;4918101;29;20734;-75
2022/05/20 13:27:28;;;;;;;7.97;3.00;;;33.20;59.70;;;;;;4918320;29;20201;-75
2022/05/20 13:30:13;;;;;;;7.22;3.08;;;33.30;56.80;;;;;;4917408;29;20285;-75
2022/05/20 13:32:42;;;;;;;6.72;2.88;;;33.30;57.70;;;;;;4917761;29;20224;-74
2022/05/20 13:35:13;;;;;;;6.03;2.83;;;33.40;58.20;;;;;;4918420;29;20217;-74
2022/05/20 13:37:46;;;;;;;6.00;2.45;;;33.40;55.50;;;;;;4918107;29;20204;-74
2022/05/20 13:40:20;;;;;;;5.20;2.80;;;33.40;55.60;;;;;;4917628;29;20216;-75
2022/05/20 13:42:53;;;;;;;6.60;2.85;;;33.40;57.00;;;;;;4917780;29;20243;-75
2022/05/20 13:49:13;;;;;;;6.88;2.78;;;33.30;57.40;;;;;;4917449;29;20213;-75
2022/05/20 13:51:07;;;;;;;5.75;2.78;;;33.50;57.60;;;;;;4917082;29;20571;-74
2022/05/20 13:53:37;;;;;;;7.47;3.17;;;33.40;55.70;;;;;;4917663;29;20647;-75
2022/05/20 13:56:07;;;;;;;5.50;2.70;;;33.20;56.30;;;;;;4919282;29;20228;-74
2022/05/20 13:58:41;;;;;;;4.10;2.50;;;32.70;54.50;;;;;;4917669;29;20216;-74
2022/05/20 14:01:13;;;;;;;6.55;3.10;;;32.80;54.70;;;;;;4917033;29;20197;-74
2022/05/20 14:03:45;;;;;;;5.53;2.70;;;32.80;55.60;;;;;;4916601;29;20264;-73
2022/05/20 14:06:18;;;;;;;5.32;2.97;;;32.90;55.40;;;;;;4917066;29;20216;-79
2022/05/20 14:08:54;;;;;;;4.85;2.80;;;32.90;55.20;;;;;;4917096;29;20627;-77
2022/05/20 14:11:31;;;;;;;4.70;2.40;;;32.40;55.60;;;;;;4916811;29;20196;-74
2022/05/20 14:14:02;;;;;;;6.22;2.67;;;32.60;59.10;;;;;;4917703;29;20219;-74
2022/05/20 14:16:34;;;;;;;6.55;2.83;;;32.70;55.30;;;;;;4916829;29;20668;-75
2022/05/20 14:19:06;;;;;;;6.28;2.60;;;32.70;54.70;;;;;;4917520;29;20194;-76
2022/05/20 14:21:39;;;;;;;7.25;3.30;;;32.60;59.30;;;;;;4917676;29;20276;-76
2022/05/20 14:24:12;;;;;;;7.38;2.92;;;32.20;58.60;;;;;;4916481;29;20197;-75
2022/05/20 14:26:47;;;;;;;6.47;2.70;;;32.60;56.30;;;;;;4955108;28;20213;-76
2022/05/20 14:29:18;;;;;;;5.32;2.70;;;32.80;57.90;;;;;;4956234;29;20211;-75
2022/05/20 14:31:49;;;;;;;4.93;2.85;;;32.60;55.20;;;;;;4955055;29;20207;-75
2022/05/20 14:34:25;;;;;;;5.05;2.60;;;32.60;55.60;;;;;;4955491;29;20242;-76
2022/05/20 14:36:58;;;;;;;5.47;2.70;;;32.60;54.40;;;;;;4954717;29;20226;-75
2022/05/20 14:39:31;;;;;;;6.47;3.10;;;32.40;53.70;;;;;;4954741;29;20610;-76
2022/05/20 14:42:06;;;;;;;5.32;2.85;;;32.40;56.60;;;;;;4955155;29;20220;-76
2022/05/20 14:44:35;;;;;;;4.60;2.80;;;32.60;57.60;;;;;;4954693;29;20646;-76
2022/05/20 14:47:15;;;;;;;8.35;2.90;;;32.50;55.40;;;;;;4954982;29;20552;-76
2022/05/20 14:49:49;;;;;;;6.90;2.80;;;32.60;56.60;;;;;;4954176;29;20704;-76
2022/05/20 14:52:29;;;;;;;7.68;2.92;;;32.60;54.70;;;;;;4955068;29;20287;-76
2022/05/20 14:54:58;;;;;;;6.38;2.60;;;32.60;58.40;;;;;;4953955;29;20646;-76
2022/05/20 14:57:34;;;;;;;6.18;3.10;;;32.70;58.00;;;;;;4954238;29;20679;-76
2022/05/20 15:00:25;;;;;;;4.15;2.80;;;32.50;60.10;;;;;;4954373;29;20239;-76
2022/05/20 15:02:54;;;;;;;5.82;2.85;;;32.40;59.60;;;;;;4954512;29;20281;-76
2022/05/20 15:05:24;;;;;;;5.30;2.92;;;32.50;56.10;;;;;;4953796;29;20310;-75
2022/05/20 15:08:00;;;;;;;6.35;2.95;;;32.40;59.50;;;;;;4954130;29;20215;-76
2022/05/20 15:10:29;;;;;;;4.28;2.83;;;32.40;58.00;;;;;;4954458;29;20670;-79
2022/05/20 15:12:58;;;;;;;5.68;3.00;;;32.40;58.80;;;;;;4954134;29;20298;-76
2022/05/20 15:15:26;;;;;;;5.20;2.95;;;32.20;58.80;;;;;;4954461;29;20235;-75
2022/05/20 15:18:02;;;;;;;6.40;3.00;;;32.20;58.30;;;;;;4954457;29;20242;-76
2022/05/20 15:20:37;;;;;;;7.30;2.65;;;32.10;59.80;;;;;;4953964;28;20215;-76
2022/05/20 15:23:14;;;;;;;4.82;2.60;;;32.20;59.30;;;;;;4944510;28;20208;-75
2022/05/20 15:25:42;;;;;;;10.80;3.15;;;32.10;57.60;;;;;;4938998;29;20203;-75
2022/05/20 15:28:47;;;;;;;5.38;2.65;;;32.00;59.20;;;;;;4948881;29;20207;-76
2022/05/20 15:36:28;;;;;;;4.93;2.80;;;32.00;60.40;;;;;;4958369;29;20231;-77
2022/05/20 15:38:59;;;;;;;5.75;2.90;;;32.10;59.30;;;;;;4958243;29;20240;-76
2022/05/20 15:41:28;;;;;;;8.25;3.15;;;32.00;57.80;;;;;;4942600;29;20267;-74
2022/05/20 15:43:56;;;;;;;7.20;2.90;;;31.90;55.70;;;;;;4938439;29;20258;-75
2022/05/20 15:46:25;;;;;;;8.23;2.80;;;32.00;57.00;;;;;;4938273;29;20215;-75
2022/05/20 15:48:53;;;;;;;8.00;2.90;;;31.90;56.10;;;;;;4938451;29;20680;-75
2022/05/20 15:51:25;;;;;;;8.20;3.00;;;31.80;55.70;;;;;;4938039;29;20627;-77
2022/05/20 15:53:54;;;;;;;6.67;2.70;;;31.60;55.50;;;;;;4942438;29;20216;-74
2022/05/20 15:56:24;;;;;;;5.70;2.70;;;31.50;56.40;;;;;;4956598;29;20207;-76
2022/05/20 15:58:59;;;;;;;6.93;2.70;;;31.50;57.30;;;;;;4957345;29;20223;-76
2022/05/20 16:01:29;;;;;;;6.17;2.80;;;31.20;55.50;;;;;;4956821;29;20231;-74
2022/05/20 16:03:57;;;;;;;6.63;3.07;;;31.30;56.30;;;;;;4956344;29;20741;-74
2022/05/20 16:06:28;;;;;;;6.85;3.20;;;31.30;56.80;;;;;;4956910;29;20625;-75
2022/05/20 16:08:59;;;;;;;4.77;2.80;;;31.20;56.70;;;;;;4954864;29;20199;-76
2022/05/20 16:11:31;;;;;;;5.47;3.03;;;31.10;57.00;;;;;;4957284;29;20334;-75
2022/05/20 16:14:00;;;;;;;6.23;3.10;;;31.00;57.60;;;;;;4956965;29;20215;-74
2022/05/20 16:16:28;;;;;;;6.77;3.03;;;31.00;57.10;;;;;;4973089;28;20318;-77
2022/05/20 16:18:58;;;;;;;10.30;3.20;;;30.80;56.50;;;;;;4975867;28;20207;-75
2022/05/20 16:21:26;;;;;;;5.73;2.97;;;30.80;57.00;;;;;;4976263;28;20289;-75
2022/05/20 16:23:57;;;;;;;7.43;3.10;;;30.80;58.30;;;;;;4976811;28;20211;-73
2022/05/20 16:26:28;;;;;;;5.83;3.20;;;30.80;58.00;;;;;;4976238;28;20235;-76
2022/05/20 16:28:58;;;;;;;5.53;2.80;;;30.60;59.80;;;;;;4976415;28;20245;-75
2022/05/20 16:31:27;;;;;;;5.47;2.67;;;30.50;58.30;;;;;;4971512;28;20239;-75
2022/05/20 16:33:55;;;;;;;7.70;3.13;;;30.50;57.00;;;;;;4955708;28;20228;-75
2022/05/20 16:36:23;;;;;;;7.20;2.90;;;30.50;56.60;;;;;;4956598;29;20557;-75
2022/05/20 16:38:52;;;;;;;7.73;2.70;;;30.30;56.00;;;;;;4956454;29;20228;-73
2022/05/20 16:41:21;;;;;;;6.93;3.10;;;30.30;57.40;;;;;;4956750;29;20254;-76
2022/05/20 16:43:49;;;;;;;12.23;3.00;;;30.30;56.00;;;;;;4956725;29;20246;-74
2022/05/20 16:46:21;;;;;;;5.93;3.00;;;30.20;56.90;;;;;;4956547;29;20243;-72
2022/05/20 16:48:53;;;;;;;6.17;2.90;;;30.00;57.20;;;;;;4956446;29;20208;-74
2022/05/20 16:51:25;;;;;;;6.53;3.27;;;29.90;58.30;;;;;;4956768;29;20207;-74
2022/05/20 16:53:56;;;;;;;5.53;3.10;;;29.60;59.50;;;;;;4956444;29;20556;-76
2022/05/20 17:02:04;;;;;;;7.87;3.73;;;29.20;59.40;;;;;;4919041;29;20268;-74
2022/05/20 17:04:32;;;;;;;7.00;3.10;;;29.10;59.20;;;;;;4955969;29;20219;-75
2022/05/20 17:07:00;;;;;;;9.00;3.50;;;29.10;59.40;;;;;;4956010;29;20215;-76
2022/05/20 17:09:28;;;;;;;8.43;3.90;;;28.90;59.90;;;;;;4956233;29;20204;-74
2022/05/20 17:11:58;;;;;;;9.13;3.70;;;28.90;61.10;;;;;;4956074;29;20239;-74
2022/05/20 17:14:28;;;;;;;4.57;3.23;;;28.80;62.50;;;;;;4956371;29;20215;-74
2022/05/20 17:16:56;;;;;;;7.07;3.60;;;28.70;62.70;;;;;;4956531;29;20219;-75
2022/05/20 17:19:26;;;;;;;6.90;3.50;;;28.60;63.10;;;;;;4955723;29;20235;-73
2022/05/20 17:24:49;;;;;;;5.63;3.30;;;28.50;65.30;;;;;;4927464;29;20243;-75
2022/05/20 17:27:20;;;;;;;8.07;3.20;;;28.40;65.30;;;;;;4958050;29;20224;-75
2022/05/20 17:29:49;;;;;;;7.40;3.53;;;28.40;65.00;;;;;;4957362;29;20214;-76
2022/05/20 17:32:21;;;;;;;6.33;3.63;;;28.30;67.80;;;;;;4956068;29;20740;-74
2022/05/20 17:34:51;;;;;;;7.57;3.50;;;28.30;68.00;;;;;;4955577;29;20211;-74
2022/05/20 17:37:22;;;;;;;9.03;3.93;;;28.20;68.90;;;;;;4955537;29;20704;-74
2022/05/20 17:39:51;;;;;;;9.23;4.03;;;28.20;70.00;;;;;;4956022;29;20192;-76
2022/05/20 17:42:21;;;;;;;7.87;3.47;;;28.00;70.90;;;;;;4956029;29;20235;-74
2022/05/20 17:44:49;;;;;;;6.33;3.57;;;28.00;70.00;;;;;;4957291;29;20199;-75
2022/05/20 17:47:18;;;;;;;9.27;3.90;;;28.00;70.20;;;;;;4943526;28;20263;-74
2022/05/20 17:49:46;;;;;;;6.13;3.70;;;27.80;72.50;;;;;;4943662;29;20240;-74
2022/05/20 17:52:19;;;;;;;7.97;3.47;;;27.70;74.00;;;;;;4944746;29;20240;-74
2022/05/20 17:54:49;;;;;;;8.37;3.57;;;27.60;73.70;;;;;;4945681;29;20228;-74
2022/05/20 17:57:24;;;;;;;8.13;3.70;;;27.50;74.70;;;;;;4936145;29;20279;-76
2022/05/20 17:59:53;;;;;;;10.17;4.10;;;27.40;75.20;;;;;;4941093;29;20211;-77
2022/05/20 18:02:21;;;;;;;6.77;3.50;;;27.20;80.00;;;;;;4942093;29;20193;-74
2022/05/20 18:04:50;;;;;;;5.83;3.53;;;27.10;78.40;;;;;;4940832;29;20276;-75
2022/05/20 18:07:19;;;;;;;6.63;3.60;;;27.00;77.70;;;;;;4939427;29;20301;-74
2022/05/20 18:09:47;;;;;;;7.10;3.77;;;26.90;78.50;;;;;;4937768;29;20216;-73
2022/05/20 18:12:16;;;;;;;6.97;3.90;;;26.80;78.70;;;;;;4946105;29;20211;-76